Time;durP1;ratioP1;P1;durP2;ratioP2;P2;SDS_P1;SDS_P2;PMS_P1;PMS_P2;Temp;Humidity;BMP_temperature;BMP_pressure;BME280_temperature;BME280_humidity;BME280_pressure;Samples;Min_cycle;Max_cycle;Signal;HPM_P1;HPM_P2
2022/01/09 00:00:34;;;;;;;17.23;8.28;;;;;;;0.47;53.70;99250.20;1720228;82;21126;-40
2022/01/09 00:03:00;;;;;;;16.52;8.53;;;;;;;0.52;53.43;99252.77;1716075;82;20962;-41
2022/01/09 00:05:27;;;;;;;17.48;8.35;;;;;;;0.49;53.50;99242.67;1731592;82;21076;-41
2022/01/09 00:07:54;;;;;;;16.70;8.33;;;;;;;0.51;53.71;99243.98;1724546;82;21504;-41
2022/01/09 00:10:20;;;;;;;17.27;8.68;;;;;;;0.53;53.42;99238.36;1724355;82;21084;-41
2022/01/09 00:12:48;;;;;;;13.03;8.08;;;;;;;0.56;53.29;99229.75;1721007;82;21464;-41
2022/01/09 00:15:15;;;;;;;13.72;7.92;;;;;;;0.51;53.08;99219.17;1722159;82;21575;-40
2022/01/09 00:17:41;;;;;;;13.65;8.08;;;;;;;0.51;53.30;99229.84;1721042;82;20945;-41
2022/01/09 00:20:10;;;;;;;17.42;8.30;;;;;;;0.51;53.54;99223.17;1724340;82;21054;-41
2022/01/09 00:22:58;;;;;;;15.80;8.15;;;;;;;0.51;53.25;99215.97;1752969;80;21037;-41
2022/01/09 00:25:08;;;;;;;15.80;8.90;;;;;;;0.49;53.47;99219.47;1757797;80;21172;-41
2022/01/09 00:27:36;;;;;;;14.20;8.08;;;;;;;0.48;53.79;99214.45;1761646;80;21025;-41
2022/01/09 00:30:09;;;;;;;17.48;8.80;;;;;;;0.41;54.37;99210.29;1741682;80;20970;-41
2022/01/09 00:32:36;;;;;;;13.20;8.30;;;;;;;0.42;54.24;99208.42;1745321;80;21004;-41
2022/01/09 00:35:04;;;;;;;15.65;8.15;;;;;;;0.40;54.83;99206.58;1746161;80;21037;-40
2022/01/09 00:37:31;;;;;;;15.72;8.88;;;;;;;0.35;54.83;99204.00;1760212;80;21781;-41
2022/01/09 00:39:58;;;;;;;15.68;7.80;;;;;;;0.32;55.04;99205.41;1769048;80;21496;-41
2022/01/09 00:42:25;;;;;;;13.50;8.35;;;;;;;0.32;55.20;99194.73;1759807;80;20973;-41
2022/01/09 00:44:51;;;;;;;14.40;8.23;;;;;;;0.27;55.75;99189.50;1772729;80;21068;-41
2022/01/09 00:47:18;;;;;;;13.70;8.33;;;;;;;0.21;56.06;99175.22;1759293;80;21013;-41
2022/01/09 00:49:44;;;;;;;15.83;8.08;;;;;;;0.17;56.19;99175.02;1743380;82;21120;-41
2022/01/09 00:52:11;;;;;;;14.03;8.25;;;;;;;0.15;56.46;99173.19;1761591;80;20998;-41
2022/01/09 00:54:38;;;;;;;16.17;8.20;;;;;;;0.11;56.77;99164.20;1765686;80;21476;-41
2022/01/09 00:57:06;;;;;;;13.22;8.35;;;;;;;0.07;57.32;99153.89;1758576;80;21040;-41
2022/01/09 00:59:33;;;;;;;12.18;7.70;;;;;;;0.03;57.86;99147.58;1749046;80;21084;-41
2022/01/09 01:02:00;;;;;;;14.73;7.65;;;;;;;0.02;57.85;99140.66;1746800;80;21126;-41
2022/01/09 01:04:27;;;;;;;14.25;7.72;;;;;;;0.03;57.99;99134.25;1749652;80;21017;-41
2022/01/09 01:06:53;;;;;;;18.67;8.08;;;;;;;0.03;57.86;99134.25;1760401;80;21049;-41
2022/01/09 01:09:30;;;;;;;12.20;7.28;;;;;;;-0.02;58.18;99126.34;1756435;80;21056;-40
2022/01/09 01:11:57;;;;;;;15.38;7.75;;;;;;;-0.03;58.21;99131.42;1707564;81;20944;-41
2022/01/09 01:14:26;;;;;;;13.72;7.55;;;;;;;-0.05;58.55;99121.05;1751219;80;21114;-41
2022/01/09 01:16:54;;;;;;;14.13;7.15;;;;;;;-0.04;59.06;99125.30;1773822;80;21538;-41
2022/01/09 01:19:22;;;;;;;16.10;7.60;;;;;;;-0.07;59.38;99115.78;1767171;80;20972;-41
2022/01/09 01:21:49;;;;;;;12.60;7.72;;;;;;;-0.06;59.61;99118.70;1763571;80;21037;-40
2022/01/09 01:24:17;;;;;;;12.88;7.50;;;;;;;-0.03;59.93;99116.23;1757288;80;21000;-40
2022/01/09 01:26:45;;;;;;;11.65;5.85;;;;;;;-0.01;60.08;99119.94;1760996;80;21154;-41
2022/01/09 01:29:11;;;;;;;14.53;7.33;;;;;;;0.03;60.21;99110.27;1753913;80;21031;-41
2022/01/09 01:31:39;;;;;;;13.08;7.00;;;;;;;0.02;60.41;99110.55;1758949;80;20980;-41
2022/01/09 01:34:06;;;;;;;13.25;7.20;;;;;;;-0.02;60.31;99103.70;1765359;80;20996;-41
2022/01/09 01:36:32;;;;;;;11.30;6.58;;;;;;;-0.06;60.80;99098.72;1767855;80;21057;-40
2022/01/09 01:38:59;;;;;;;12.15;7.10;;;;;;;-0.09;61.02;99100.63;1755211;80;21131;-41
2022/01/09 01:41:25;;;;;;;11.70;7.25;;;;;;;-0.13;61.22;99095.64;1757595;80;20941;-40
2022/01/09 01:43:52;;;;;;;10.60;6.62;;;;;;;-0.12;61.13;99083.37;1757344;80;21068;-41
2022/01/09 01:46:19;;;;;;;13.45;6.83;;;;;;;-0.10;61.17;99087.08;1757569;80;21495;-41
2022/01/09 01:48:45;;;;;;;10.78;6.17;;;;;;;-0.12;60.91;99086.57;1751604;80;21075;-41
2022/01/09 01:51:11;;;;;;;10.35;6.37;;;;;;;-0.18;61.01;99087.74;1757503;80;21069;-41
2022/01/09 01:53:39;;;;;;;13.45;6.65;;;;;;;-0.19;61.28;99080.83;1773914;80;20968;-41
2022/01/09 01:56:06;;;;;;;10.85;6.53;;;;;;;-0.22;61.30;99081.43;1765313;80;21516;-41
2022/01/09 01:58:34;;;;;;;11.57;6.30;;;;;;;-0.18;61.44;99073.09;1757366;80;21013;-41
2022/01/09 02:01:02;;;;;;;13.90;6.33;;;;;;;-0.14;61.38;99066.88;1764455;80;21514;-41
2022/01/09 02:03:29;;;;;;;10.75;6.05;;;;;;;-0.11;61.53;99070.84;1758525;80;21967;-41
2022/01/09 02:05:55;;;;;;;11.48;6.95;;;;;;;-0.09;61.57;99064.66;1774629;80;20960;-41
2022/01/09 02:08:22;;;;;;;12.13;7.17;;;;;;;-0.10;61.75;99060.44;1751530;80;21011;-41
2022/01/09 02:10:48;;;;;;;12.80;6.87;;;;;;;-0.11;61.90;99061.52;1756946;80;20997;-41
2022/01/09 02:13:17;;;;;;;13.08;6.65;;;;;;;-0.12;62.16;99051.94;1751824;80;21029;-40
2022/01/09 02:15:45;;;;;;;11.10;6.05;;;;;;;-0.14;62.42;99039.44;1762885;80;21954;-40
2022/01/09 02:18:20;;;;;;;11.40;6.37;;;;;;;-0.17;62.72;99037.38;1757253;80;21033;-41
2022/01/09 02:20:48;;;;;;;10.20;5.85;;;;;;;-0.28;63.17;99028.00;1757259;80;20980;-40
2022/01/09 02:23:15;;;;;;;10.63;6.70;;;;;;;-0.34;63.37;99029.20;1766274;80;21005;-41
2022/01/09 02:25:43;;;;;;;12.63;6.15;;;;;;;-0.41;63.74;99018.14;1776839;80;21302;-41
2022/01/09 02:28:11;;;;;;;9.65;6.03;;;;;;;-0.40;64.08;99017.06;1781302;80;21110;-41
2022/01/09 02:30:38;;;;;;;12.23;6.87;;;;;;;-0.40;64.39;99012.53;1764613;80;21537;-40
2022/01/09 02:33:08;;;;;;;11.08;6.83;;;;;;;-0.45;64.72;99012.63;1774678;80;20973;-40
2022/01/09 02:35:34;;;;;;;9.88;6.40;;;;;;;-0.54;65.00;99007.20;1756392;80;20942;-41
2022/01/09 02:38:03;;;;;;;14.58;6.47;;;;;;;-0.64;65.48;99007.39;1752834;80;21041;-40
2022/01/09 02:40:29;;;;;;;12.23;7.22;;;;;;;-0.68;65.86;99000.28;1760574;80;21109;-41
2022/01/09 02:42:56;;;;;;;11.22;6.83;;;;;;;-0.72;66.18;99009.38;1754460;80;20902;-40
2022/01/09 02:45:24;;;;;;;12.20;6.42;;;;;;;-0.80;66.52;99004.73;1757370;80;21057;-41
2022/01/09 02:47:53;;;;;;;11.83;7.33;;;;;;;-0.82;66.68;98999.48;1765310;80;21243;-41
2022/01/09 02:55:21;;;;;;;11.95;6.40;;;;;;;-0.91;67.30;98990.02;1754957;80;21555;-40
2022/01/09 02:57:52;;;;;;;13.53;7.45;;;;;;;-0.94;67.49;98983.43;1755035;80;20957;-41
2022/01/09 03:00:23;;;;;;;11.45;7.03;;;;;;;-0.97;67.59;98980.58;1754995;80;21028;-41
2022/01/09 03:02:50;;;;;;;12.33;6.97;;;;;;;-0.98;67.67;98979.78;1754339;80;21009;-41
2022/01/09 03:05:17;;;;;;;18.35;7.33;;;;;;;-0.98;67.97;98971.01;1769948;80;21938;-40
2022/01/09 03:07:44;;;;;;;11.45;6.83;;;;;;;-0.97;67.94;98971.27;1761801;80;20953;-41
2022/01/09 03:10:12;;;;;;;10.50;7.00;;;;;;;-0.94;67.86;98970.67;1751895;80;21079;-41
2022/01/09 03:12:39;;;;;;;11.00;7.08;;;;;;;-0.96;67.93;98967.50;1776525;80;21075;-41
2022/01/09 03:15:08;;;;;;;12.23;7.47;;;;;;;-0.96;68.03;98970.16;1779877;80;21013;-41
2022/01/09 03:17:34;;;;;;;13.18;7.22;;;;;;;-0.98;68.14;98966.48;1766129;80;21133;-41
2022/01/09 03:20:01;;;;;;;16.10;8.08;;;;;;;-0.98;68.34;98975.00;1768604;80;21005;-41
2022/01/09 03:22:27;;;;;;;10.65;7.00;;;;;;;-0.95;68.20;98969.88;1753026;80;20985;-41
2022/01/09 03:24:54;;;;;;;14.73;7.42;;;;;;;-0.98;68.17;98965.69;1757616;80;20973;-41
2022/01/09 03:27:20;;;;;;;16.17;8.13;;;;;;;-0.98;68.26;98967.02;1754193;80;21040;-41
2022/01/09 03:29:47;;;;;;;12.33;7.12;;;;;;;-0.96;68.27;98959.52;1752025;80;21078;-40
2022/01/09 03:32:13;;;;;;;11.43;7.30;;;;;;;-0.99;68.42;98956.13;1752562;80;20973;-40
2022/01/09 03:37:24;;;;;;;14.85;7.37;;;;;;;-1.01;68.72;98956.41;1804487;78;22605;-41
2022/01/09 03:39:53;;;;;;;14.35;7.70;;;;;;;-1.13;68.95;98952.65;1757870;80;21547;-41
2022/01/09 03:42:19;;;;;;;18.73;7.62;;;;;;;-1.11;69.16;98946.48;1754058;80;21107;-41
2022/01/09 03:44:46;;;;;;;14.73;7.67;;;;;;;-1.13;69.22;98941.47;1753528;80;20942;-40
2022/01/09 03:47:12;;;;;;;12.07;7.12;;;;;;;-1.14;69.43;98935.89;1769606;80;21040;-40
2022/01/09 03:49:39;;;;;;;16.70;7.90;;;;;;;-1.16;69.37;98938.62;1775607;79;21534;-40
2022/01/09 03:52:07;;;;;;;13.70;7.70;;;;;;;-1.15;69.56;98937.51;1794269;79;21008;-40
2022/01/09 03:54:37;;;;;;;13.45;7.40;;;;;;;-1.15;69.64;98933.52;1781560;80;21091;-42
2022/01/09 03:57:04;;;;;;;16.40;7.72;;;;;;;-1.14;69.69;98928.45;1760858;80;21016;-42
2022/01/09 03:59:31;;;;;;;12.95;7.85;;;;;;;-1.12;69.66;98928.42;1768000;80;20917;-40
2022/01/09 04:01:57;;;;;;;14.68;8.23;;;;;;;-1.10;69.64;98922.80;1784309;80;21036;-40
2022/01/09 04:04:24;;;;;;;13.43;8.15;;;;;;;-1.11;69.53;98921.20;1758821;79;20979;-40
2022/01/09 04:06:51;;;;;;;12.30;7.65;;;;;;;-1.13;69.57;98920.73;1753593;80;21138;-41
2022/01/09 04:09:29;;;;;;;16.60;8.38;;;;;;;-1.21;69.75;98916.86;1754473;79;21511;-41
2022/01/09 04:11:48;;;;;;;12.40;7.22;;;;;;;-1.22;69.81;98909.19;1757333;80;20921;-41
2022/01/09 04:14:16;;;;;;;14.98;8.35;;;;;;;-1.25;69.92;98917.20;1798456;79;20969;-40
2022/01/09 04:16:43;;;;;;;15.25;8.40;;;;;;;-1.21;70.05;98912.11;1774771;79;21033;-41
2022/01/09 04:19:13;;;;;;;14.23;8.40;;;;;;;-1.21;70.13;98906.22;1782586;80;21239;-41
2022/01/09 04:21:42;;;;;;;15.70;8.80;;;;;;;-1.17;70.00;98903.78;1767924;79;20970;-41
2022/01/09 04:24:09;;;;;;;14.43;8.03;;;;;;;-1.21;69.92;98901.47;1766530;80;20957;-41
2022/01/09 04:26:37;;;;;;;14.53;8.63;;;;;;;-1.24;70.05;98892.73;1759657;80;21547;-40
2022/01/09 04:29:04;;;;;;;15.13;8.10;;;;;;;-1.26;70.15;98894.91;1759275;80;21610;-41
2022/01/09 04:31:32;;;;;;;17.57;9.03;;;;;;;-1.27;70.26;98884.02;1755798;80;21118;-41
2022/01/09 04:33:59;;;;;;;14.47;8.33;;;;;;;-1.27;70.29;98877.37;1753332;81;20909;-40
2022/01/09 04:36:25;;;;;;;17.52;8.98;;;;;;;-1.28;70.28;98879.77;1755797;80;21382;-40
2022/01/09 04:38:54;;;;;;;13.68;8.38;;;;;;;-1.30;70.43;98862.77;1758804;81;20933;-41
2022/01/09 04:41:20;;;;;;;16.82;8.73;;;;;;;-1.36;70.66;98859.45;1772400;80;21506;-40
2022/01/09 04:43:49;;;;;;;15.75;8.90;;;;;;;-1.37;70.61;98858.40;1784164;80;21803;-40
2022/01/09 04:46:22;;;;;;;16.05;8.55;;;;;;;-1.38;70.82;98849.63;1771845;80;20961;-40
2022/01/09 04:48:46;;;;;;;17.62;8.30;;;;;;;-1.38;70.75;98849.63;1780314;80;20966;-41
2022/01/09 04:51:14;;;;;;;17.45;9.23;;;;;;;-1.40;70.87;98847.80;1768747;79;21061;-40
2022/01/09 04:53:41;;;;;;;17.87;8.68;;;;;;;-1.36;70.83;98850.14;1765490;79;21527;-41
2022/01/09 04:56:08;;;;;;;15.58;8.00;;;;;;;-1.36;70.82;98843.49;1783295;79;21842;-40
2022/01/09 04:58:35;;;;;;;15.45;8.30;;;;;;;-1.35;70.75;98847.70;1765538;79;20973;-40
2022/01/09 05:01:02;;;;;;;13.62;8.15;;;;;;;-1.34;70.71;98847.95;1765302;80;21012;-40
2022/01/09 05:03:29;;;;;;;14.07;8.00;;;;;;;-1.33;70.72;98840.23;1764270;80;21007;-40
2022/01/09 05:05:56;;;;;;;15.45;8.48;;;;;;;-1.29;70.60;98831.66;1770092;80;21005;-41
2022/01/09 05:08:23;;;;;;;17.37;9.13;;;;;;;-1.28;70.54;98839.35;1758174;81;21135;-41
2022/01/09 05:10:50;;;;;;;14.78;8.75;;;;;;;-1.26;70.48;98832.41;1764014;80;21037;-41
2022/01/09 05:13:16;;;;;;;15.32;8.43;;;;;;;-1.25;70.42;98837.42;1758299;81;20881;-40
2022/01/09 05:15:43;;;;;;;15.68;9.35;;;;;;;-1.24;70.29;98826.24;1768974;80;21514;-41
2022/01/09 05:18:14;;;;;;;16.23;8.70;;;;;;;-1.23;70.31;98823.84;1782258;80;20985;-41
2022/01/09 05:20:38;;;;;;;20.02;10.20;;;;;;;-1.25;70.40;98820.67;1781457;79;21090;-40
2022/01/09 05:23:05;;;;;;;17.98;9.23;;;;;;;-1.27;70.32;98811.68;1758301;81;20969;-41
2022/01/09 05:25:32;;;;;;;18.23;9.78;;;;;;;-1.30;70.33;98809.59;1764354;80;21491;-41
2022/01/09 05:27:59;;;;;;;20.72;9.18;;;;;;;-1.29;70.35;98810.38;1789559;80;20925;-40
2022/01/09 05:30:25;;;;;;;17.50;9.00;;;;;;;-1.28;70.38;98813.30;1776460;80;21024;-40
2022/01/09 05:32:52;;;;;;;18.45;8.80;;;;;;;-1.27;70.44;98805.03;1783759;79;21089;-40
2022/01/09 05:35:19;;;;;;;18.17;9.08;;;;;;;-1.26;70.32;98801.84;1781310;80;21044;-41
2022/01/09 05:37:45;;;;;;;14.25;8.53;;;;;;;-1.26;70.38;98788.54;1767375;79;21017;-41
2022/01/09 05:40:13;;;;;;;16.02;8.50;;;;;;;-1.27;70.32;98780.31;1769446;80;20933;-41
2022/01/09 05:42:40;;;;;;;15.63;9.35;;;;;;;-1.28;70.27;98784.05;1781718;80;21009;-41
2022/01/09 05:45:08;;;;;;;14.65;8.75;;;;;;;-1.29;70.47;98779.80;1764228;80;21133;-40
2022/01/09 05:47:35;;;;;;;15.25;8.73;;;;;;;-1.27;70.46;98774.99;1778364;80;21032;-41
2022/01/09 05:50:04;;;;;;;14.33;9.10;;;;;;;-1.26;70.29;98783.22;1768661;80;21543;-40
2022/01/09 05:52:31;;;;;;;14.47;8.55;;;;;;;-1.26;70.36;98784.55;1786120;80;21068;-41
2022/01/09 05:54:58;;;;;;;16.35;9.13;;;;;;;-1.21;70.16;98789.77;1781654;80;21544;-40
2022/01/09 05:57:24;;;;;;;19.17;9.18;;;;;;;-1.18;70.02;98783.85;1765841;78;21123;-41
2022/01/09 05:59:50;;;;;;;17.35;9.38;;;;;;;-1.18;70.06;98783.31;1777743;79;20960;-40
2022/01/09 06:02:17;;;;;;;17.62;9.20;;;;;;;-1.18;69.99;98783.85;1787437;78;21578;-40
2022/01/09 06:04:44;;;;;;;18.02;10.32;;;;;;;-1.19;70.05;98783.59;1782515;79;20977;-41
2022/01/09 06:07:11;;;;;;;16.05;9.18;;;;;;;-1.16;70.04;98785.69;1786064;79;21060;-41
2022/01/09 06:09:37;;;;;;;16.17;8.80;;;;;;;-1.12;70.11;98790.66;1788048;80;21806;-41
2022/01/09 06:12:06;;;;;;;14.93;8.93;;;;;;;-1.06;70.05;98788.11;1784108;80;20984;-40
2022/01/09 06:14:33;;;;;;;14.53;8.33;;;;;;;-1.02;69.80;98790.45;1783487;80;21012;-41
2022/01/09 06:16:59;;;;;;;14.60;9.03;;;;;;;-1.60;69.66;98691.37;1780274;80;21025;-40
2022/01/09 06:19:26;;;;;;;16.17;8.85;;;;;;;-0.98;69.60;98772.80;1778803;80;21467;-41
2022/01/09 06:21:52;;;;;;;16.93;9.63;;;;;;;-0.96;69.71;98774.61;1787005;78;21578;-41
2022/01/09 06:24:20;;;;;;;16.23;9.10;;;;;;;-0.96;69.73;98775.94;1778775;80;21483;-41
2022/01/09 06:26:47;;;;;;;18.17;8.60;;;;;;;-0.94;69.71;98773.78;1758167;81;21589;-41
2022/01/09 06:29:14;;;;;;;15.32;9.18;;;;;;;-0.90;69.64;98774.75;1772136;80;21043;-41
2022/01/09 06:31:40;;;;;;;16.23;9.18;;;;;;;-0.90;69.61;98777.41;1758658;81;21040;-40
2022/01/09 06:34:07;;;;;;;16.05;8.65;;;;;;;-0.85;69.48;98777.84;1758235;81;21136;-40
2022/01/09 06:36:33;;;;;;;16.10;8.43;;;;;;;-0.87;69.59;98777.38;1723203;83;21017;-40
2022/01/09 06:39:00;;;;;;;15.70;8.70;;;;;;;-0.83;69.55;98769.83;1761614;80;21037;-41
2022/01/09 06:41:26;;;;;;;14.28;8.28;;;;;;;-0.81;69.44;98769.51;1781864;80;20993;-41
2022/01/09 06:43:53;;;;;;;16.57;9.13;;;;;;;-0.80;69.31;98769.22;1773114;79;21084;-41
2022/01/09 06:46:19;;;;;;;17.17;8.35;;;;;;;-0.78;69.36;98767.06;1767761;80;21738;-40
2022/01/09 06:48:46;;;;;;;14.80;8.93;;;;;;;-0.73;69.39;98772.27;1738831;82;20905;-41
2022/01/09 06:51:12;;;;;;;14.65;8.05;;;;;;;-0.68;69.45;98770.05;1771176;79;20976;-41
2022/01/09 06:53:39;;;;;;;15.48;8.25;;;;;;;-0.63;69.26;98772.59;1786591;80;20917;-40
2022/01/09 06:56:06;;;;;;;16.15;8.95;;;;;;;-0.64;69.22;98770.47;1782554;80;20963;-40
2022/01/09 06:58:32;;;;;;;16.57;9.48;;;;;;;-0.63;69.24;98769.93;1763850;80;21956;-41
2022/01/09 07:00:59;;;;;;;15.30;8.35;;;;;;;-0.64;69.26;98767.81;1786779;79;21547;-41
2022/01/09 07:03:25;;;;;;;16.30;8.30;;;;;;;-0.66;69.37;98758.53;1786764;80;20965;-41
2022/01/09 07:05:53;;;;;;;13.22;8.25;;;;;;;-0.63;69.42;98758.72;1786774;80;21004;-41
2022/01/09 07:08:19;;;;;;;13.65;8.75;;;;;;;-0.58;69.38;98754.61;1784687;80;21051;-41
2022/01/09 07:10:46;;;;;;;15.23;8.43;;;;;;;-0.56;69.37;98748.45;1782784;80;21226;-41
2022/01/09 07:13:15;;;;;;;14.28;8.93;;;;;;;-0.56;69.35;98751.66;1760947;80;21007;-41
2022/01/09 07:15:42;;;;;;;16.27;8.90;;;;;;;-0.56;69.44;98744.45;1776654;80;21060;-41
2022/01/09 07:18:09;;;;;;;13.45;8.60;;;;;;;-0.48;69.32;98740.27;1784274;80;20953;-41
2022/01/09 07:20:36;;;;;;;14.30;8.20;;;;;;;-0.48;69.23;98752.25;1779599;79;21063;-41
2022/01/09 07:23:03;;;;;;;16.20;8.38;;;;;;;-0.46;69.10;98742.11;1780821;80;21121;-39
2022/01/09 07:25:30;;;;;;;13.60;8.13;;;;;;;-0.44;68.98;98752.69;1780769;80;21004;-39
2022/01/09 07:27:58;;;;;;;12.65;7.97;;;;;;;-0.40;68.79;98743.56;1781428;80;20973;-39
2022/01/09 07:30:27;;;;;;;13.68;8.70;;;;;;;-0.39;68.76;98739.03;1779876;80;20992;-38
2022/01/09 07:32:55;;;;;;;12.53;8.20;;;;;;;-0.34;68.79;98737.58;1780019;80;21063;-39
2022/01/09 07:35:22;;;;;;;13.83;8.55;;;;;;;-0.29;68.61;98736.13;1779915;80;21105;-38
2022/01/09 07:37:49;;;;;;;15.95;8.43;;;;;;;-0.28;68.50;98725.70;1766759;79;20969;-39
2022/01/09 07:40:17;;;;;;;14.50;8.60;;;;;;;-0.30;68.46;98732.67;1742197;82;21029;-39
2022/01/09 07:42:46;;;;;;;14.60;8.10;;;;;;;-0.32;68.68;98736.72;1769785;81;20999;-38
2022/01/09 07:45:12;;;;;;;14.65;8.73;;;;;;;-0.25;68.69;98729.10;1772785;81;21013;-38
2022/01/09 07:47:39;;;;;;;14.38;8.23;;;;;;;-0.23;68.75;98733.56;1768895;81;21064;-38
2022/01/09 07:50:10;;;;;;;12.60;7.83;;;;;;;-0.23;68.77;98730.90;1771242;80;20922;-38
2022/01/09 07:52:38;;;;;;;14.55;8.83;;;;;;;-0.20;68.71;98726.31;1770127;79;21013;-38
2022/01/09 07:55:06;;;;;;;14.00;8.18;;;;;;;-0.15;68.76;98718.20;1768579;81;20970;-38
2022/01/09 07:57:32;;;;;;;15.13;8.23;;;;;;;-0.11;68.78;98712.50;1756175;81;21041;-38
2022/01/09 08:00:02;;;;;;;14.60;8.78;;;;;;;-0.05;68.69;98716.62;1772561;81;21114;-39
2022/01/09 08:02:28;;;;;;;13.72;8.50;;;;;;;0.02;68.55;98714.28;1772516;79;20973;-38
2022/01/09 08:04:55;;;;;;;15.58;7.85;;;;;;;0.10;68.52;98717.53;1772801;81;21069;-39
2022/01/09 08:07:21;;;;;;;13.62;8.10;;;;;;;0.10;68.30;98712.77;1765058;79;21029;-39
2022/01/09 08:09:48;;;;;;;12.30;8.23;;;;;;;0.11;68.50;98694.34;1769971;81;21084;-38
2022/01/09 08:12:15;;;;;;;14.07;7.90;;;;;;;0.17;68.55;98698.45;1772675;79;21780;-38
2022/01/09 08:14:43;;;;;;;13.20;7.83;;;;;;;0.25;68.39;98697.69;1770136;81;20981;-38
2022/01/09 08:17:11;;;;;;;13.70;8.10;;;;;;;0.35;68.22;98699.54;1767383;79;21069;-39
2022/01/09 08:19:37;;;;;;;13.08;8.70;;;;;;;0.34;68.02;98687.30;1772568;81;20965;-39
2022/01/09 08:22:05;;;;;;;13.98;8.88;;;;;;;0.32;68.07;98684.17;1772839;79;21045;-38
2022/01/09 08:24:34;;;;;;;14.78;8.73;;;;;;;0.31;68.21;98681.80;1772873;81;20926;-38
2022/01/09 08:27:02;;;;;;;15.03;8.38;;;;;;;0.29;68.20;98685.34;1772742;81;21049;-38
2022/01/09 08:29:29;;;;;;;13.90;8.60;;;;;;;0.25;68.53;98681.15;1765922;81;21564;-39
2022/01/09 08:31:55;;;;;;;13.50;8.35;;;;;;;0.26;68.59;98677.40;1772986;81;21520;-39
2022/01/09 08:34:22;;;;;;;15.23;8.48;;;;;;;0.29;68.69;98676.02;1767584;79;21018;-39
2022/01/09 08:36:49;;;;;;;14.87;8.68;;;;;;;0.30;68.67;98674.34;1772130;80;21147;-39
2022/01/09 08:39:17;;;;;;;12.68;8.33;;;;;;;0.30;68.75;98653.02;1768630;81;20917;-38
2022/01/09 08:41:44;;;;;;;11.90;8.55;;;;;;;0.27;68.83;98649.66;1768795;81;21481;-39
2022/01/09 08:44:10;;;;;;;12.35;8.08;;;;;;;0.27;68.90;98643.53;1768861;81;21539;-39
2022/01/09 08:46:38;;;;;;;12.28;7.97;;;;;;;0.26;68.82;98647.28;1768586;80;21784;-39
2022/01/09 08:49:05;;;;;;;14.85;8.45;;;;;;;0.22;68.80;98641.01;1767934;78;21792;-39
2022/01/09 08:51:32;;;;;;;12.33;8.45;;;;;;;0.27;69.09;98641.66;1768486;81;21000;-39
2022/01/09 08:53:59;;;;;;;14.68;8.65;;;;;;;0.31;68.82;98635.94;1758877;81;21028;-39
2022/01/09 08:56:27;;;;;;;13.72;8.90;;;;;;;0.29;68.84;98632.78;1765772;80;21540;-39
2022/01/09 08:58:55;;;;;;;15.08;9.23;;;;;;;0.29;69.11;98632.78;1775986;79;21506;-39
2022/01/09 09:01:22;;;;;;;13.48;8.43;;;;;;;0.30;69.01;98622.37;1772808;81;21128;-39
2022/01/09 09:03:48;;;;;;;16.17;8.75;;;;;;;0.25;69.14;98619.84;1764015;79;21015;-39
2022/01/09 09:06:15;;;;;;;14.18;8.98;;;;;;;0.29;68.98;98628.78;1762055;81;20986;-40
2022/01/09 09:08:43;;;;;;;15.65;9.45;;;;;;;0.32;69.14;98620.73;1750242;81;21798;-39
2022/01/09 09:11:10;;;;;;;14.33;8.90;;;;;;;0.33;69.15;98623.09;1772789;81;21030;-39
2022/01/09 09:13:38;;;;;;;13.95;9.23;;;;;;;0.33;69.23;98612.98;1778710;79;21111;-39
2022/01/09 09:16:05;;;;;;;13.85;9.50;;;;;;;0.35;69.25;98620.89;1767992;79;21004;-39
2022/01/09 09:18:33;;;;;;;15.50;9.38;;;;;;;0.36;69.37;98619.02;1783471;79;20993;-40
2022/01/09 09:21:00;;;;;;;15.18;8.83;;;;;;;0.43;69.30;98612.69;1766401;79;21053;-39
2022/01/09 09:23:27;;;;;;;12.37;8.90;;;;;;;0.44;69.33;98600.91;1778011;79;21025;-39
2022/01/09 09:25:53;;;;;;;14.87;8.93;;;;;;;0.43;69.23;98596.15;1785703;79;21124;-39
2022/01/09 09:28:20;;;;;;;14.95;9.25;;;;;;;0.40;69.33;98589.30;1770060;79;21039;-39
2022/01/09 09:30:47;;;;;;;16.35;9.35;;;;;;;0.41;69.13;98588.20;1770069;79;20965;-39
2022/01/09 09:33:13;;;;;;;14.95;9.95;;;;;;;0.38;69.24;98590.96;1766406;81;21061;-39
2022/01/09 09:35:40;;;;;;;13.93;9.38;;;;;;;0.40;69.37;98592.75;1773875;79;21002;-39
2022/01/09 09:38:07;;;;;;;16.73;9.68;;;;;;;0.39;69.18;98588.51;1775137;80;21973;-40
2022/01/09 09:40:35;;;;;;;16.42;9.75;;;;;;;0.41;69.26;98586.33;1779978;80;21656;-40
2022/01/09 09:43:02;;;;;;;14.63;9.18;;;;;;;0.44;69.30;98594.23;1779546;79;20913;-39
2022/01/09 09:45:29;;;;;;;15.60;9.53;;;;;;;0.50;69.18;98597.00;1767496;78;21004;-40
2022/01/09 09:47:55;;;;;;;14.55;9.80;;;;;;;0.48;68.87;98589.09;1763794;80;21104;-40
2022/01/09 09:50:22;;;;;;;17.15;10.08;;;;;;;0.49;68.76;98586.09;1775491;80;21176;-40
2022/01/09 09:52:50;;;;;;;15.00;10.05;;;;;;;0.49;68.65;98587.42;1766164;79;21000;-40
2022/01/09 09:55:18;;;;;;;14.40;9.70;;;;;;;0.52;68.66;98582.03;1780034;79;21619;-40
2022/01/09 09:57:45;;;;;;;14.20;9.95;;;;;;;0.54;68.73;98583.82;1770248;80;21045;-40
2022/01/09 10:00:18;;;;;;;16.37;10.00;;;;;;;0.57;68.71;98581.88;1754784;80;20932;-40
2022/01/09 10:02:58;;;;;;;16.82;10.35;;;;;;;0.59;68.69;98581.00;1771834;80;21162;-40
2022/01/09 10:05:29;;;;;;;16.55;9.88;;;;;;;0.58;68.68;98575.45;1761753;80;21004;-40
2022/01/09 10:08:09;;;;;;;18.25;9.80;;;;;;;0.55;68.50;98562.73;1764740;79;20997;-39
2022/01/09 10:10:39;;;;;;;16.57;10.05;;;;;;;0.49;68.75;98574.64;1772083;80;20972;-39
2022/01/09 10:13:17;;;;;;;15.53;9.65;;;;;;;0.51;68.87;98569.79;1779106;79;20933;-38
2022/01/09 10:15:50;;;;;;;15.38;9.75;;;;;;;0.56;68.80;98569.64;1755901;80;21137;-39
2022/01/09 10:18:44;;;;;;;14.78;9.80;;;;;;;0.56;68.57;98573.64;1779539;80;20960;-38
2022/01/09 10:21:18;;;;;;;17.05;10.20;;;;;;;0.50;68.72;98566.88;1779855;80;20912;-38
2022/01/09 10:24:02;;;;;;;14.23;9.75;;;;;;;0.47;68.88;98563.52;1776703;80;20993;-39
2022/01/09 10:26:31;;;;;;;17.10;10.18;;;;;;;0.49;68.91;98559.97;1782136;80;21025;-39
2022/01/09 10:28:58;;;;;;;16.07;9.90;;;;;;;0.52;68.83;98552.16;1783551;80;21146;-39
2022/01/09 10:31:26;;;;;;;17.82;11.28;;;;;;;0.54;68.92;98541.16;1783665;80;20922;-38
2022/01/09 10:34:07;;;;;;;14.43;10.03;;;;;;;0.59;68.83;98536.45;1783722;79;20922;-39
2022/01/09 10:36:41;;;;;;;15.45;10.03;;;;;;;0.62;68.77;98543.84;1781970;79;21029;-39
2022/01/09 10:39:14;;;;;;;17.80;11.10;;;;;;;0.66;68.70;98541.33;1782653;80;21017;-38
2022/01/09 10:41:52;;;;;;;17.85;11.33;;;;;;;0.71;68.91;98530.50;1758175;81;21079;-39
2022/01/09 10:44:21;;;;;;;14.93;10.18;;;;;;;0.78;68.77;98532.13;1772893;79;21911;-39
2022/01/09 10:47:00;;;;;;;20.27;11.25;;;;;;;0.77;68.76;98527.92;1785964;80;20939;-39
2022/01/09 10:49:43;;;;;;;15.93;10.88;;;;;;;0.77;68.65;98530.04;1789315;80;20881;-39
2022/01/09 10:52:27;;;;;;;19.32;11.33;;;;;;;0.71;68.84;98526.50;1789365;80;21887;-39
2022/01/09 10:54:56;;;;;;;17.23;10.88;;;;;;;0.75;69.08;98526.09;1789278;80;21821;-39
2022/01/09 10:57:26;;;;;;;18.07;10.68;;;;;;;0.82;69.08;98517.09;1762213;80;21543;-39
2022/01/09 10:59:53;;;;;;;18.65;11.08;;;;;;;0.86;69.01;98512.13;1783521;79;20929;-39
2022/01/09 11:02:20;;;;;;;16.30;10.58;;;;;;;0.87;68.99;98515.02;1796247;78;21811;-39
2022/01/09 11:04:48;;;;;;;20.50;11.78;;;;;;;0.90;68.96;98507.48;1789279;80;21013;-39
2022/01/09 11:07:15;;;;;;;20.80;12.33;;;;;;;0.92;69.09;98506.06;1788716;80;21319;-39
2022/01/09 11:09:46;;;;;;;16.70;11.05;;;;;;;0.97;68.96;98504.56;1784226;79;21060;-39
2022/01/09 11:12:16;;;;;;;19.90;12.82;;;;;;;0.94;68.95;98505.20;1778429;79;21026;-39
2022/01/09 11:14:41;;;;;;;17.67;11.93;;;;;;;0.95;68.90;98505.98;1788170;79;21558;-39
2022/01/09 11:17:09;;;;;;;18.95;11.88;;;;;;;0.92;69.04;98503.97;1788834;80;21055;-39
2022/01/09 11:19:36;;;;;;;17.52;11.40;;;;;;;0.91;69.21;98507.73;1785213;80;21139;-39
2022/01/09 11:22:06;;;;;;;16.95;11.60;;;;;;;0.93;69.01;98492.17;1782128;79;21511;-39
2022/01/09 11:24:56;;;;;;;19.02;11.53;;;;;;;0.95;69.04;98503.32;1778341;80;21779;-39
2022/01/09 11:27:53;;;;;;;19.65;12.20;;;;;;;0.98;68.89;98495.45;1760095;79;20972;-40
2022/01/09 11:30:46;;;;;;;19.00;12.18;;;;;;;0.99;68.86;98489.58;1773471;80;21005;-40
2022/01/09 11:33:31;;;;;;;18.77;12.37;;;;;;;1.03;68.90;98487.28;1768296;80;21234;-40
2022/01/09 11:36:09;;;;;;;15.83;10.98;;;;;;;1.03;68.89;98481.95;1758080;80;20984;-40
2022/01/09 11:38:59;;;;;;;19.57;12.43;;;;;;;1.05;68.79;98485.09;1766886;78;21021;-40